sensor_id;sensor_type;location;lat;lon;timestamp;pressure;altitude;pressure_sealevel;temperature;humidity
50172;BME280;37125;48.824;2.410;2023-05-29T00:00:01;101054.57;;;25.75;37.05
50172;BME280;37125;48.824;2.410;2023-05-29T00:00:32;101046.96;;;25.64;37.20
50172;BME280;37125;48.824;2.410;2023-05-29T00:01:03;101047.45;;;25.74;37.01
50172;BME280;37125;48.824;2.410;2023-05-29T00:01:34;101042.23;;;25.84;36.84
50172;BME280;37125;48.824;2.410;2023-05-29T00:02:04;101042.85;;;25.80;36.87
50172;BME280;37125;48.824;2.410;2023-05-29T00:02:35;101035.11;;;25.66;37.16
50172;BME280;37125;48.824;2.410;2023-05-29T00:03:05;101043.53;;;25.75;37.00
50172;BME280;37125;48.824;2.410;2023-05-29T00:03:36;101041.33;;;25.73;37.04
50172;BME280;37125;48.824;2.410;2023-05-29T00:04:06;101048.13;;;25.67;37.18
50172;BME280;37125;48.824;2.410;2023-05-29T00:04:37;101049.93;;;25.61;37.31
50172;BME280;37125;48.824;2.410;2023-05-29T00:05:08;101053.76;;;25.64;37.26
50172;BME280;37125;48.824;2.410;2023-05-29T00:05:38;101054.39;;;25.62;37.29
50172;BME280;37125;48.824;2.410;2023-05-29T00:06:09;101054.35;;;25.62;37.27
50172;BME280;37125;48.824;2.410;2023-05-29T00:06:40;101049.20;;;25.76;37.06
50172;BME280;37125;48.824;2.410;2023-05-29T00:07:10;101046.07;;;25.82;36.93
50172;BME280;37125;48.824;2.410;2023-05-29T00:07:41;101038.00;;;25.84;36.87
50172;BME280;37125;48.824;2.410;2023-05-29T00:08:11;101038.66;;;25.78;36.96
50172;BME280;37125;48.824;2.410;2023-05-29T00:08:42;101044.23;;;25.79;36.95
50172;BME280;37125;48.824;2.410;2023-05-29T00:09:12;101048.52;;;25.66;37.16
50172;BME280;37125;48.824;2.410;2023-05-29T00:09:43;101045.07;;;25.69;37.11
50172;BME280;37125;48.824;2.410;2023-05-29T00:10:14;101042.36;;;25.67;37.16
50172;BME280;37125;48.824;2.410;2023-05-29T00:10:44;101040.71;;;25.75;37.04
50172;BME280;37125;48.824;2.410;2023-05-29T00:11:15;101043.56;;;25.65;37.23
50172;BME280;37125;48.824;2.410;2023-05-29T00:11:45;101037.93;;;25.66;37.16
50172;BME280;37125;48.824;2.410;2023-05-29T00:12:16;101045.33;;;25.68;37.15
50172;BME280;37125;48.824;2.410;2023-05-29T00:12:47;101049.15;;;25.62;37.28
50172;BME280;37125;48.824;2.410;2023-05-29T00:13:17;101045.32;;;25.57;37.38
50172;BME280;37125;48.824;2.410;2023-05-29T00:13:48;101047.09;;;25.48;37.55
50172;BME280;37125;48.824;2.410;2023-05-29T00:14:19;101040.09;;;25.54;37.44
50172;BME280;37125;48.824;2.410;2023-05-29T00:14:50;101055.16;;;25.62;37.28
50172;BME280;37125;48.824;2.410;2023-05-29T00:15:20;101053.44;;;25.56;37.39
50172;BME280;37125;48.824;2.410;2023-05-29T00:15:51;101057.24;;;25.66;37.20
50172;BME280;37125;48.824;2.410;2023-05-29T00:16:21;101046.34;;;25.57;37.34
50172;BME280;37125;48.824;2.410;2023-05-29T00:16:52;101050.99;;;25.64;37.22
50172;BME280;37125;48.824;2.410;2023-05-29T00:17:23;101051.82;;;25.66;37.15
50172;BME280;37125;48.824;2.410;2023-05-29T00:17:53;101041.76;;;25.69;37.05
50172;BME280;37125;48.824;2.410;2023-05-29T00:18:24;101044.38;;;25.69;37.04
50172;BME280;37125;48.824;2.410;2023-05-29T00:18:54;101049.51;;;25.74;36.95
50172;BME280;37125;48.824;2.410;2023-05-29T00:19:25;101058.31;;;25.64;37.14
50172;BME280;37125;48.824;2.410;2023-05-29T00:19:55;101061.66;;;25.59;37.23
50172;BME280;37125;48.824;2.410;2023-05-29T00:20:26;101048.05;;;25.58;37.24
50172;BME280;37125;48.824;2.410;2023-05-29T00:20:57;101047.47;;;25.53;37.34
50172;BME280;37125;48.824;2.410;2023-05-29T00:21:27;101049.67;;;25.60;37.20
50172;BME280;37125;48.824;2.410;2023-05-29T00:21:58;101046.95;;;25.72;36.98
50172;BME280;37125;48.824;2.410;2023-05-29T00:22:28;101052.51;;;25.60;37.17
50172;BME280;37125;48.824;2.410;2023-05-29T00:22:59;101055.21;;;25.58;37.19
50172;BME280;37125;48.824;2.410;2023-05-29T00:23:29;101062.63;;;25.63;37.11
50172;BME280;37125;48.824;2.410;2023-05-29T00:24:00;101058.04;;;25.56;37.25
50172;BME280;37125;48.824;2.410;2023-05-29T00:24:31;101055.88;;;25.55;37.27
50172;BME280;37125;48.824;2.410;2023-05-29T00:25:01;101049.49;;;25.71;36.99
50172;BME280;37125;48.824;2.410;2023-05-29T00:25:32;101052.55;;;25.74;36.93
50172;BME280;37125;48.824;2.410;2023-05-29T00:26:02;101058.20;;;25.79;36.83
50172;BME280;37125;48.824;2.410;2023-05-29T00:26:33;101055.16;;;25.77;36.88
50172;BME280;37125;48.824;2.410;2023-05-29T00:27:04;101062.14;;;25.77;36.85
50172;BME280;37125;48.824;2.410;2023-05-29T00:27:35;101068.61;;;25.87;36.64
50172;BME280;37125;48.824;2.410;2023-05-29T00:28:06;101049.77;;;25.77;36.79
50172;BME280;37125;48.824;2.410;2023-05-29T00:28:36;101048.80;;;25.65;37.02
50172;BME280;37125;48.824;2.410;2023-05-29T00:29:07;101059.77;;;25.72;36.89
50172;BME280;37125;48.824;2.410;2023-05-29T00:29:38;101052.90;;;25.68;36.96
50172;BME280;37125;48.824;2.410;2023-05-29T00:30:09;101059.11;;;25.72;36.88
50172;BME280;37125;48.824;2.410;2023-05-29T00:30:40;101059.63;;;25.69;36.95
50172;BME280;37125;48.824;2.410;2023-05-29T00:31:10;101059.55;;;25.64;37.02
50172;BME280;37125;48.824;2.410;2023-05-29T00:31:41;101058.05;;;25.63;37.04
50172;BME280;37125;48.824;2.410;2023-05-29T00:32:11;101064.40;;;25.67;36.97
50172;BME280;37125;48.824;2.410;2023-05-29T00:32:42;101062.88;;;25.64;37.01
50172;BME280;37125;48.824;2.410;2023-05-29T00:33:13;101060.23;;;25.58;37.10
50172;BME280;37125;48.824;2.410;2023-05-29T00:33:43;101055.55;;;25.52;37.20
50172;BME280;37125;48.824;2.410;2023-05-29T00:34:14;101052.66;;;25.61;37.06
50172;BME280;37125;48.824;2.410;2023-05-29T00:34:44;101047.99;;;25.58;37.11
50172;BME280;37125;48.824;2.410;2023-05-29T00:35:15;101050.16;;;25.61;37.05
50172;BME280;37125;48.824;2.410;2023-05-29T00:35:45;101056.61;;;25.60;37.04
50172;BME280;37125;48.824;2.410;2023-05-29T00:36:16;101053.10;;;25.50;37.21
50172;BME280;37125;48.824;2.410;2023-05-29T00:36:47;101060.21;;;25.53;37.19
50172;BME280;37125;48.824;2.410;2023-05-29T00:37:17;101058.47;;;25.53;37.18
50172;BME280;37125;48.824;2.410;2023-05-29T00:37:48;101061.48;;;25.61;37.08
50172;BME280;37125;48.824;2.410;2023-05-29T00:38:19;101061.69;;;25.54;37.19
50172;BME280;37125;48.824;2.410;2023-05-29T00:38:49;101060.17;;;25.53;37.20
50172;BME280;37125;48.824;2.410;2023-05-29T00:39:20;101049.13;;;25.69;36.91
50172;BME280;37125;48.824;2.410;2023-05-29T00:39:50;101052.58;;;25.70;36.84
50172;BME280;37125;48.824;2.410;2023-05-29T00:40:21;101051.30;;;25.71;36.80
50172;BME280;37125;48.824;2.410;2023-05-29T00:40:52;101057.66;;;25.63;36.93
50172;BME280;37125;48.824;2.410;2023-05-29T00:41:22;101057.41;;;25.68;36.86
50172;BME280;37125;48.824;2.410;2023-05-29T00:41:53;101053.69;;;25.66;36.88
50172;BME280;37125;48.824;2.410;2023-05-29T00:42:23;101051.33;;;25.62;36.99
50172;BME280;37125;48.824;2.410;2023-05-29T00:42:54;101053.77;;;25.56;37.09
50172;BME280;37125;48.824;2.410;2023-05-29T00:43:24;101055.05;;;25.52;37.15
50172;BME280;37125;48.824;2.410;2023-05-29T00:43:55;101057.44;;;25.53;37.16
50172;BME280;37125;48.824;2.410;2023-05-29T00:44:25;101049.60;;;25.51;37.21
50172;BME280;37125;48.824;2.410;2023-05-29T00:44:56;101055.86;;;25.53;37.18
50172;BME280;37125;48.824;2.410;2023-05-29T00:45:26;101049.85;;;25.54;37.15
50172;BME280;37125;48.824;2.410;2023-05-29T00:45:57;101055.85;;;25.54;37.17
50172;BME280;37125;48.824;2.410;2023-05-29T00:46:30;101062.82;;;25.52;37.22
50172;BME280;37125;48.824;2.410;2023-05-29T00:47:01;101055.13;;;25.59;37.09
50172;BME280;37125;48.824;2.410;2023-05-29T00:47:32;101053.35;;;25.53;37.19
50172;BME280;37125;48.824;2.410;2023-05-29T00:48:03;101054.66;;;25.52;37.20
50172;BME280;37125;48.824;2.410;2023-05-29T00:48:34;101046.90;;;25.45;37.31
50172;BME280;37125;48.824;2.410;2023-05-29T00:49:05;101048.42;;;25.44;37.32
50172;BME280;37125;48.824;2.410;2023-05-29T00:49:37;101049.56;;;25.47;37.27
50172;BME280;37125;48.824;2.410;2023-05-29T00:50:09;101047.69;;;25.43;37.34
50172;BME280;37125;48.824;2.410;2023-05-29T00:50:40;101046.28;;;25.47;37.26
50172;BME280;37125;48.824;2.410;2023-05-29T00:51:12;101042.40;;;25.56;37.09
50172;BME280;37125;48.824;2.410;2023-05-29T00:51:44;101046.15;;;25.52;37.15
50172;BME280;37125;48.824;2.410;2023-05-29T00:52:15;101044.25;;;25.49;37.20
50172;BME280;37125;48.824;2.410;2023-05-29T00:52:45;101049.90;;;25.57;37.08
50172;BME280;37125;48.824;2.410;2023-05-29T00:53:16;101047.40;;;25.52;37.14
50172;BME280;37125;48.824;2.410;2023-05-29T00:53:48;101033.93;;;25.53;37.14
50172;BME280;37125;48.824;2.410;2023-05-29T00:54:25;101050.66;;;25.58;37.06
50172;BME280;37125;48.824;2.410;2023-05-29T00:54:56;101044.90;;;25.50;37.21
50172;BME280;37125;48.824;2.410;2023-05-29T00:55:27;101055.09;;;25.53;37.17
50172;BME280;37125;48.824;2.410;2023-05-29T00:55:58;101054.88;;;25.48;37.25
50172;BME280;37125;48.824;2.410;2023-05-29T00:56:29;101047.12;;;25.62;37.01
50172;BME280;37125;48.824;2.410;2023-05-29T00:57:01;101044.53;;;25.75;36.75
50172;BME280;37125;48.824;2.410;2023-05-29T00:57:35;101050.90;;;25.77;36.66
50172;BME280;37125;48.824;2.410;2023-05-29T00:58:06;101048.77;;;25.71;36.69
50172;BME280;37125;48.824;2.410;2023-05-29T00:58:37;101047.18;;;25.70;36.71
50172;BME280;37125;48.824;2.410;2023-05-29T00:59:08;101057.46;;;25.62;36.84
50172;BME280;37125;48.824;2.410;2023-05-29T00:59:40;101050.19;;;25.59;36.91
50172;BME280;37125;48.824;2.410;2023-05-29T01:00:12;101046.90;;;25.51;37.02
50172;BME280;37125;48.824;2.410;2023-05-29T01:00:42;101044.12;;;25.54;36.99
50172;BME280;37125;48.824;2.410;2023-05-29T01:01:13;101047.41;;;25.55;36.97
50172;BME280;37125;48.824;2.410;2023-05-29T01:01:44;101052.66;;;25.57;36.94
50172;BME280;37125;48.824;2.410;2023-05-29T01:02:16;101053.58;;;25.58;36.91
50172;BME280;37125;48.824;2.410;2023-05-29T01:02:47;101048.06;;;25.57;36.91
50172;BME280;37125;48.824;2.410;2023-05-29T01:03:18;101047.77;;;25.73;36.62
50172;BME280;37125;48.824;2.410;2023-05-29T01:03:51;101051.97;;;25.69;36.69
50172;BME280;37125;48.824;2.410;2023-05-29T01:04:25;101053.98;;;25.60;36.87
50172;BME280;37125;48.824;2.410;2023-05-29T01:04:56;101055.65;;;25.55;36.97
50172;BME280;37125;48.824;2.410;2023-05-29T01:05:27;101054.92;;;25.51;37.05
50172;BME280;37125;48.824;2.410;2023-05-29T01:05:59;101051.21;;;25.49;37.08
50172;BME280;37125;48.824;2.410;2023-05-29T01:06:29;101053.92;;;25.67;36.77
50172;BME280;37125;48.824;2.410;2023-05-29T01:07:00;101050.75;;;25.71;36.64
50172;BME280;37125;48.824;2.410;2023-05-29T01:07:32;101057.91;;;25.68;36.67
50172;BME280;37125;48.824;2.410;2023-05-29T01:08:03;101052.46;;;25.60;36.82
50172;BME280;37125;48.824;2.410;2023-05-29T01:08:33;101054.83;;;25.71;36.63
50172;BME280;37125;48.824;2.410;2023-05-29T01:09:04;101051.18;;;25.78;36.50
50172;BME280;37125;48.824;2.410;2023-05-29T01:09:35;101054.87;;;25.81;36.40
50172;BME280;37125;48.824;2.410;2023-05-29T01:10:07;101060.37;;;25.63;36.70
50172;BME280;37125;48.824;2.410;2023-05-29T01:10:37;101057.72;;;25.62;36.72
50172;BME280;37125;48.824;2.410;2023-05-29T01:11:27;101047.12;;;25.67;36.66
50172;BME280;37125;48.824;2.410;2023-05-29T01:12:12;101054.18;;;25.77;36.48
50172;BME280;37125;48.824;2.410;2023-05-29T01:12:49;101047.54;;;25.69;36.61
50172;BME280;37125;48.824;2.410;2023-05-29T01:13:28;101052.02;;;25.68;36.61
50172;BME280;37125;48.824;2.410;2023-05-29T01:14:02;101064.02;;;25.66;36.66
50172;BME280;37125;48.824;2.410;2023-05-29T01:14:43;101052.23;;;25.64;36.68
50172;BME280;37125;48.824;2.410;2023-05-29T01:15:22;101049.19;;;25.65;36.66
50172;BME280;37125;48.824;2.410;2023-05-29T01:16:01;101055.29;;;25.60;36.72
50172;BME280;37125;48.824;2.410;2023-05-29T01:16:38;101063.19;;;25.68;36.59
50172;BME280;37125;48.824;2.410;2023-05-29T01:17:17;101055.40;;;25.63;36.63
50172;BME280;37125;48.824;2.410;2023-05-29T01:18:05;101048.81;;;25.60;36.65
50172;BME280;37125;48.824;2.410;2023-05-29T01:18:42;101047.66;;;25.63;36.57
50172;BME280;37125;48.824;2.410;2023-05-29T01:19:23;101051.84;;;25.55;36.70
50172;BME280;37125;48.824;2.410;2023-05-29T01:20:06;101049.72;;;25.55;36.71
50172;BME280;37125;48.824;2.410;2023-05-29T01:20:42;101052.05;;;25.45;36.88
50172;BME280;37125;48.824;2.410;2023-05-29T01:21:20;101048.10;;;25.49;36.85
50172;BME280;37125;48.824;2.410;2023-05-29T01:21:59;101048.40;;;25.48;36.89
50172;BME280;37125;48.824;2.410;2023-05-29T01:22:51;101049.66;;;25.44;36.97
50172;BME280;37125;48.824;2.410;2023-05-29T01:23:49;101053.74;;;25.45;36.94
50172;BME280;37125;48.824;2.410;2023-05-29T01:24:26;101045.76;;;25.50;36.87
50172;BME280;37125;48.824;2.410;2023-05-29T01:25:11;101049.22;;;25.54;36.77
50172;BME280;37125;48.824;2.410;2023-05-29T01:25:54;101050.35;;;25.53;36.77
50172;BME280;37125;48.824;2.410;2023-05-29T01:26:47;101059.12;;;25.61;36.64
50172;BME280;37125;48.824;2.410;2023-05-29T01:27:21;101042.94;;;25.46;36.93
50172;BME280;37125;48.824;2.410;2023-05-29T01:27:54;101047.32;;;25.60;36.67
50172;BME280;37125;48.824;2.410;2023-05-29T01:28:28;101045.74;;;25.50;36.85
50172;BME280;37125;48.824;2.410;2023-05-29T01:29:04;101046.10;;;25.50;36.84
50172;BME280;37125;48.824;2.410;2023-05-29T01:29:39;101046.43;;;25.50;36.82
50172;BME280;37125;48.824;2.410;2023-05-29T01:30:11;101046.53;;;25.48;36.86
50172;BME280;37125;48.824;2.410;2023-05-29T01:30:42;101047.66;;;25.48;36.88
50172;BME280;37125;48.824;2.410;2023-05-29T01:31:16;101049.58;;;25.47;36.93
50172;BME280;37125;48.824;2.410;2023-05-29T01:31:47;101043.77;;;25.46;36.95
50172;BME280;37125;48.824;2.410;2023-05-29T01:32:18;101046.01;;;25.46;36.95
50172;BME280;37125;48.824;2.410;2023-05-29T01:32:50;101048.07;;;25.56;36.79
50172;BME280;37125;48.824;2.410;2023-05-29T01:33:21;101048.07;;;25.53;36.82
50172;BME280;37125;48.824;2.410;2023-05-29T01:33:53;101052.52;;;25.50;36.88
50172;BME280;37125;48.824;2.410;2023-05-29T01:34:24;101053.31;;;25.46;36.95
50172;BME280;37125;48.824;2.410;2023-05-29T01:34:54;101054.85;;;25.48;36.93
50172;BME280;37125;48.824;2.410;2023-05-29T01:35:25;101049.70;;;25.47;36.95
50172;BME280;37125;48.824;2.410;2023-05-29T01:35:55;101050.12;;;25.52;36.85
50172;BME280;37125;48.824;2.410;2023-05-29T01:36:27;101049.04;;;25.68;36.55
50172;BME280;37125;48.824;2.410;2023-05-29T01:36:57;101053.10;;;25.74;36.40
50172;BME280;37125;48.824;2.410;2023-05-29T01:37:28;101053.36;;;25.66;36.55
50172;BME280;37125;48.824;2.410;2023-05-29T01:37:59;101054.74;;;25.59;36.68
50172;BME280;37125;48.824;2.410;2023-05-29T01:38:29;101059.60;;;25.51;36.82
50172;BME280;37125;48.824;2.410;2023-05-29T01:39:00;101058.70;;;25.57;36.73
50172;BME280;37125;48.824;2.410;2023-05-29T01:39:31;101053.75;;;25.66;36.56
50172;BME280;37125;48.824;2.410;2023-05-29T01:40:03;101052.70;;;25.78;36.35
50172;BME280;37125;48.824;2.410;2023-05-29T01:40:34;101055.06;;;25.76;36.33
50172;BME280;37125;48.824;2.410;2023-05-29T01:41:05;101051.78;;;25.71;36.39
50172;BME280;37125;48.824;2.410;2023-05-29T01:41:37;101057.07;;;25.71;36.36
50172;BME280;37125;48.824;2.410;2023-05-29T01:42:08;101051.36;;;25.57;36.62
50172;BME280;37125;48.824;2.410;2023-05-29T01:42:40;101056.72;;;25.50;36.75
50172;BME280;37125;48.824;2.410;2023-05-29T01:43:10;101049.88;;;25.51;36.74
50172;BME280;37125;48.824;2.410;2023-05-29T01:43:43;101051.36;;;25.52;36.74
50172;BME280;37125;48.824;2.410;2023-05-29T01:44:14;101050.31;;;25.56;36.67
50172;BME280;37125;48.824;2.410;2023-05-29T01:44:45;101054.59;;;25.49;36.78
50172;BME280;37125;48.824;2.410;2023-05-29T01:45:17;101061.20;;;25.44;36.90
50172;BME280;37125;48.824;2.410;2023-05-29T01:45:48;101056.17;;;25.46;36.89
50172;BME280;37125;48.824;2.410;2023-05-29T01:46:19;101061.42;;;25.41;36.98
50172;BME280;37125;48.824;2.410;2023-05-29T01:46:51;101066.58;;;25.48;36.90
50172;BME280;37125;48.824;2.410;2023-05-29T01:47:22;101061.35;;;25.55;36.74
50172;BME280;37125;48.824;2.410;2023-05-29T01:47:53;101047.35;;;25.55;36.72
50172;BME280;37125;48.824;2.410;2023-05-29T01:48:24;101050.29;;;25.70;36.39
50172;BME280;37125;48.824;2.410;2023-05-29T01:48:55;101051.10;;;25.78;36.21
50172;BME280;37125;48.824;2.410;2023-05-29T01:49:26;101047.58;;;25.79;36.11
50172;BME280;37125;48.824;2.410;2023-05-29T01:49:58;101042.35;;;25.69;36.22
50172;BME280;37125;48.824;2.410;2023-05-29T01:50:30;101045.13;;;25.58;36.43
50172;BME280;37125;48.824;2.410;2023-05-29T01:51:01;101051.32;;;25.49;36.62
50172;BME280;37125;48.824;2.410;2023-05-29T01:51:31;101047.92;;;25.41;36.81
50172;BME280;37125;48.824;2.410;2023-05-29T01:52:02;101047.94;;;25.42;36.82
50172;BME280;37125;48.824;2.410;2023-05-29T01:52:33;101050.76;;;25.41;36.87
50172;BME280;37125;48.824;2.410;2023-05-29T01:53:04;101056.49;;;25.41;36.89
50172;BME280;37125;48.824;2.410;2023-05-29T01:53:34;101049.28;;;25.38;36.95
50172;BME280;37125;48.824;2.410;2023-05-29T01:54:05;101051.45;;;25.40;36.94
50172;BME280;37125;48.824;2.410;2023-05-29T01:54:36;101052.72;;;25.43;36.89
50172;BME280;37125;48.824;2.410;2023-05-29T01:55:07;101045.06;;;25.46;36.83
50172;BME280;37125;48.824;2.410;2023-05-29T01:55:38;101061.29;;;25.49;36.75
50172;BME280;37125;48.824;2.410;2023-05-29T01:56:09;101051.99;;;25.36;36.98
50172;BME280;37125;48.824;2.410;2023-05-29T01:56:41;101047.68;;;25.45;36.82
50172;BME280;37125;48.824;2.410;2023-05-29T01:57:12;101047.47;;;25.50;36.70
50172;BME280;37125;48.824;2.410;2023-05-29T01:57:43;101052.52;;;25.56;36.57
50172;BME280;37125;48.824;2.410;2023-05-29T01:58:16;101052.64;;;25.56;36.55
50172;BME280;37125;48.824;2.410;2023-05-29T01:58:48;101043.82;;;25.56;36.52
50172;BME280;37125;48.824;2.410;2023-05-29T01:59:20;101048.04;;;25.62;36.41
50172;BME280;37125;48.824;2.410;2023-05-29T01:59:52;101047.38;;;25.50;36.61
50172;BME280;37125;48.824;2.410;2023-05-29T02:00:22;101052.61;;;25.56;36.52
50172;BME280;37125;48.824;2.410;2023-05-29T02:00:53;101053.31;;;25.49;36.64
50172;BME280;37125;48.824;2.410;2023-05-29T02:01:25;101048.17;;;25.49;36.63
50172;BME280;37125;48.824;2.410;2023-05-29T02:01:56;101047.16;;;25.48;36.67
50172;BME280;37125;48.824;2.410;2023-05-29T02:02:26;101050.66;;;25.60;36.48
50172;BME280;37125;48.824;2.410;2023-05-29T02:02:57;101054.05;;;25.59;36.47
50172;BME280;37125;48.824;2.410;2023-05-29T02:03:27;101048.80;;;25.48;36.67
50172;BME280;37125;48.824;2.410;2023-05-29T02:03:58;101046.22;;;25.39;36.86
50172;BME280;37125;48.824;2.410;2023-05-29T02:04:29;101045.38;;;25.39;36.90
50172;BME280;37125;48.824;2.410;2023-05-29T02:04:59;101047.07;;;25.34;37.04
50172;BME280;37125;48.824;2.410;2023-05-29T02:05:30;101059.01;;;25.42;36.88
50172;BME280;37125;48.824;2.410;2023-05-29T02:06:00;101050.05;;;25.52;36.67
50172;BME280;37125;48.824;2.410;2023-05-29T02:06:31;101050.09;;;25.52;36.66
50172;BME280;37125;48.824;2.410;2023-05-29T02:07:02;101045.38;;;25.60;36.53
50172;BME280;37125;48.824;2.410;2023-05-29T02:07:32;101044.67;;;25.70;36.33
50172;BME280;37125;48.824;2.410;2023-05-29T02:08:03;101041.79;;;25.67;36.34
50172;BME280;37125;48.824;2.410;2023-05-29T02:08:34;101045.38;;;25.58;36.48
50172;BME280;37125;48.824;2.410;2023-05-29T02:09:04;101049.67;;;25.66;36.32
50172;BME280;37125;48.824;2.410;2023-05-29T02:09:35;101046.54;;;25.58;36.47
50172;BME280;37125;48.824;2.410;2023-05-29T02:10:06;101052.36;;;25.61;36.41
50172;BME280;37125;48.824;2.410;2023-05-29T02:10:37;101044.57;;;25.65;36.35
50172;BME280;37125;48.824;2.410;2023-05-29T02:11:08;101050.42;;;25.50;36.61
50172;BME280;37125;48.824;2.410;2023-05-29T02:11:38;101051.40;;;25.50;36.60
50172;BME280;37125;48.824;2.410;2023-05-29T02:12:09;101046.27;;;25.41;36.81
50172;BME280;37125;48.824;2.410;2023-05-29T02:12:39;101055.77;;;25.38;36.90
50172;BME280;37125;48.824;2.410;2023-05-29T02:13:10;101061.20;;;25.37;36.96
50172;BME280;37125;48.824;2.410;2023-05-29T02:13:41;101046.73;;;25.38;36.96
50172;BME280;37125;48.824;2.410;2023-05-29T02:14:12;101047.44;;;25.41;36.88
50172;BME280;37125;48.824;2.410;2023-05-29T02:14:42;101041.01;;;25.41;36.90
50172;BME280;37125;48.824;2.410;2023-05-29T02:15:13;101046.79;;;25.49;36.71
50172;BME280;37125;48.824;2.410;2023-05-29T02:15:43;101045.73;;;25.52;36.63
50172;BME280;37125;48.824;2.410;2023-05-29T02:16:14;101044.77;;;25.41;36.85
50172;BME280;37125;48.824;2.410;2023-05-29T02:16:45;101043.06;;;25.40;36.88
50172;BME280;37125;48.824;2.410;2023-05-29T02:17:15;101046.17;;;25.34;36.99
50172;BME280;37125;48.824;2.410;2023-05-29T02:17:46;101046.47;;;25.36;36.96
50172;BME280;37125;48.824;2.410;2023-05-29T02:18:17;101051.28;;;25.37;36.95
50172;BME280;37125;48.824;2.410;2023-05-29T02:18:47;101045.39;;;25.34;37.00
50172;BME280;37125;48.824;2.410;2023-05-29T02:19:18;101046.19;;;25.38;36.94
50172;BME280;37125;48.824;2.410;2023-05-29T02:19:48;101043.90;;;25.38;36.91
50172;BME280;37125;48.824;2.410;2023-05-29T02:20:19;101049.55;;;25.37;36.94
50172;BME280;37125;48.824;2.410;2023-05-29T02:20:50;101042.32;;;25.39;36.90
50172;BME280;37125;48.824;2.410;2023-05-29T02:21:20;101048.99;;;25.51;36.67
50172;BME280;37125;48.824;2.410;2023-05-29T02:21:51;101052.70;;;25.46;36.74
50172;BME280;37125;48.824;2.410;2023-05-29T02:22:22;101046.11;;;25.45;36.74
50172;BME280;37125;48.824;2.410;2023-05-29T02:22:52;101042.86;;;25.33;36.99
50172;BME280;37125;48.824;2.410;2023-05-29T02:23:23;101048.89;;;25.39;36.89
50172;BME280;37125;48.824;2.410;2023-05-29T02:23:53;101050.14;;;25.39;36.89
50172;BME280;37125;48.824;2.410;2023-05-29T02:24:24;101041.53;;;25.49;36.68
50172;BME280;37125;48.824;2.410;2023-05-29T02:24:55;101044.77;;;25.50;36.67
50172;BME280;37125;48.824;2.410;2023-05-29T02:25:25;101040.39;;;25.43;36.78
50172;BME280;37125;48.824;2.410;2023-05-29T02:25:56;101046.16;;;25.46;36.71
50172;BME280;37125;48.824;2.410;2023-05-29T02:26:26;101051.04;;;25.39;36.85
50172;BME280;37125;48.824;2.410;2023-05-29T02:26:57;101043.74;;;25.42;36.80
50172;BME280;37125;48.824;2.410;2023-05-29T02:27:27;101042.78;;;25.36;36.91
50172;BME280;37125;48.824;2.410;2023-05-29T02:27:58;101042.27;;;25.36;36.92
50172;BME280;37125;48.824;2.410;2023-05-29T02:28:28;101043.95;;;25.44;36.76
50172;BME280;37125;48.824;2.410;2023-05-29T02:28:59;101041.44;;;25.45;36.74
50172;BME280;37125;48.824;2.410;2023-05-29T02:29:30;101057.64;;;25.39;36.84
50172;BME280;37125;48.824;2.410;2023-05-29T02:30:00;101055.47;;;25.34;36.94
50172;BME280;37125;48.824;2.410;2023-05-29T02:30:31;101047.02;;;25.41;36.83
50172;BME280;37125;48.824;2.410;2023-05-29T02:31:02;101044.25;;;25.48;36.71
50172;BME280;37125;48.824;2.410;2023-05-29T02:31:33;101042.76;;;25.50;36.68
50172;BME280;37125;48.824;2.410;2023-05-29T02:32:04;101044.64;;;25.41;36.83
50172;BME280;37125;48.824;2.410;2023-05-29T02:32:35;101045.16;;;25.45;36.77
50172;BME280;37125;48.824;2.410;2023-05-29T02:33:05;101049.40;;;25.42;36.81
50172;BME280;37125;48.824;2.410;2023-05-29T02:33:36;101054.31;;;25.33;37.00
50172;BME280;37125;48.824;2.410;2023-05-29T02:34:07;101055.31;;;25.24;37.16
50172;BME280;37125;48.824;2.410;2023-05-29T02:34:37;101046.40;;;25.24;37.19
50172;BME280;37125;48.824;2.410;2023-05-29T02:35:08;101047.88;;;25.45;36.78
50172;BME280;37125;48.824;2.410;2023-05-29T02:35:39;101051.76;;;25.43;36.77
50172;BME280;37125;48.824;2.410;2023-05-29T02:36:09;101049.70;;;25.54;36.57
50172;BME280;37125;48.824;2.410;2023-05-29T02:36:40;101052.12;;;25.52;36.57
50172;BME280;37125;48.824;2.410;2023-05-29T02:37:10;101042.32;;;25.38;36.83
50172;BME280;37125;48.824;2.410;2023-05-29T02:37:41;101048.03;;;25.45;36.72
50172;BME280;37125;48.824;2.410;2023-05-29T02:38:12;101046.74;;;25.54;36.55
50172;BME280;37125;48.824;2.410;2023-05-29T02:38:42;101045.37;;;25.53;36.54
50172;BME280;37125;48.824;2.410;2023-05-29T02:39:13;101047.48;;;25.42;36.74
50172;BME280;37125;48.824;2.410;2023-05-29T02:39:43;101057.65;;;25.44;36.71
50172;BME280;37125;48.824;2.410;2023-05-29T02:40:14;101073.63;;;25.42;36.74
50172;BME280;37125;48.824;2.410;2023-05-29T02:40:45;101054.70;;;25.47;36.67
50172;BME280;37125;48.824;2.410;2023-05-29T02:41:15;101054.24;;;25.44;36.70
50172;BME280;37125;48.824;2.410;2023-05-29T02:41:46;101052.47;;;25.34;36.89
50172;BME280;37125;48.824;2.410;2023-05-29T02:42:16;101055.14;;;25.48;36.63
50172;BME280;37125;48.824;2.410;2023-05-29T02:42:47;101052.50;;;25.41;36.73
50172;BME280;37125;48.824;2.410;2023-05-29T02:43:18;101052.36;;;25.46;36.66
50172;BME280;37125;48.824;2.410;2023-05-29T02:43:48;101052.24;;;25.36;36.83
50172;BME280;37125;48.824;2.410;2023-05-29T02:44:19;101052.46;;;25.44;36.70
50172;BME280;37125;48.824;2.410;2023-05-29T02:44:50;101050.21;;;25.33;36.89
50172;BME280;37125;48.824;2.410;2023-05-29T02:45:20;101054.47;;;25.37;36.86
50172;BME280;37125;48.824;2.410;2023-05-29T02:45:51;101059.21;;;25.37;36.88